Ana Sayfa
METAR-TAF:

METAR-TAF

Havaalanları :

Libreville Leon M'ba Uluslararası Havalimanı

Libreville, Gabon

Enlem: 00-27N, Boylam: 009-25E, yükseklik: 12 m

Güncel hava durumu gözlemi

Rapor saat 16:30 UTC de 38 dakika önce yapıldı.
Rüzgar batı/güneybatıdan 6 kt
Sıcaklık 30°C
Nem 79%
Basınç 1006 hPa
Görüş mesafesi 10 km veya daha fazla
1500 ft yükseklikte az bulutlu

METAR: FOOL 021630Z 25006KT 9999 FEW015 30/26 Q1006 NOSIG

Saat: 18:08 (17:08 UTC)

Tahmin

Rapor saat 11:00 UTC de 6 saat ve 8 dakika önce yapıldı.
Ayın 02'si saat 12 UTC'den ayın 03'si saat 18 UTC'ye kadar geçerli Tahmin
Rüzgar güney/güneybatıdan 8 kt
Görüş mesafesi 10 km veya daha fazla
1300 ft yükseklikte parçalı bulutlu
Geçici
ayın 02'si saat 14 UTC'den ayın 02'si saat 21 UTC'ye kadar
1000 ft yükseklikte parçalı çok bulutlu
2000 ft yükseklikte az bulutlu, Kümülonimbus.
gök gürültülü fırtına

TAF: FOOL 021100Z 0212/0318 20008KT 9999 SCT013 TEMPO 0214/0221 TS BKN010 FEW020CB

4.000'den fazla havaalanı için hava durumu gözlemleri ve tahminleri (METAR ve TAF raporları).

Kullanılabilir istasyonlar harita üzerinde sarı ve kırmızı noktalarla gösterilir.

İstasyonun adını görmek için fareyi noktanın üzerinde gezdirin.

Sonrasında hava gözlem ve tahminlerini görmek için tıklayın.

Haritayı değiştirmek için: yaklaştırmak için siyah artı işaretli yeşil düğmeye ve uzaklaştırmak için de eksi işaretli düğmeye hızla tıklayın; bitişik haritalar için yeşil okları kullanın.


METAR-TAF: